If you wish to contribute or participate in the discussions about articles you are invited to join SKYbrary as a registered user

 Actions

Angel S Adami Airport

From SKYbrary Wiki

SUAA
Airport
ICAO: SUAA
Summary
Name Angel S Adami Airport
Region
Territory Uruguay UY.gif
Location , Montevideo
Serving Montevideo
Elevation 53.035 m <br />174 ft <br />174 ft53.035 m <br />
Type medium airport
Coordinates 34° 47' 21.15" S, 56° 15' 52.93" W
Runways
Designator Length Width Surface ROPS
18/36 1250 m4,101.05 ft <br /> 23 m75.459 ft <br /> CON /


METAR
Observation SUAA 221900Z 03015KT 9999 FEW030 SCT200 24/16 Q1015
Station Melilla
Date/Time 22 April 2021 19:00:00
Wind direction 30°
Wind speed 15 kts
Lowest cloud amount few clouds
Temperature 24°C
Dew point 16°C
Humidity 60%
QNH 1015 hPa
Weather condition n/a